createdAt,value
2019-02-11T00:00:37.208Z,5.30
2019-02-11T00:03:06.277Z,5.20
2019-02-11T00:05:35.212Z,5.20
2019-02-11T00:08:04.288Z,5.10
2019-02-11T00:10:33.346Z,5.10
2019-02-11T00:13:10.210Z,5.10
2019-02-11T00:15:32.950Z,5.10
2019-02-11T00:18:01.895Z,5.00
2019-02-11T00:22:59.373Z,5.00
2019-02-11T00:25:28.301Z,5.00
2019-02-11T00:27:57.227Z,5.10
2019-02-11T00:30:26.275Z,5.00
2019-02-11T00:32:55.324Z,5.00
2019-02-11T00:35:24.364Z,5.00
2019-02-11T00:37:53.392Z,5.00
2019-02-11T00:40:22.376Z,4.80
2019-02-11T00:42:51.289Z,5.00
2019-02-11T00:45:20.261Z,4.90
2019-02-11T00:47:49.194Z,4.90
2019-02-11T00:50:18.172Z,4.80
2019-02-11T00:52:47.093Z,4.70
2019-02-11T00:55:16.085Z,4.70
2019-02-11T00:57:45.023Z,4.70
2019-02-11T01:00:14.707Z,4.60
2019-02-11T01:02:43.718Z,4.60
2019-02-11T01:05:12.723Z,4.60
2019-02-11T01:07:41.676Z,4.50
2019-02-11T01:10:12.416Z,4.40
2019-02-11T01:12:41.357Z,4.40
2019-02-11T01:15:12.061Z,4.40
2019-02-11T01:17:41.055Z,4.40
2019-02-11T01:20:11.911Z,4.30
2019-02-11T01:22:40.912Z,4.30
2019-02-11T01:25:10.107Z,4.30
2019-02-11T01:27:39.131Z,4.30
2019-02-11T01:30:10.858Z,4.20
2019-02-11T01:32:39.856Z,4.30
2019-02-11T01:35:08.948Z,4.30
2019-02-11T01:37:37.944Z,4.20
2019-02-11T01:40:09.645Z,4.30
2019-02-11T01:42:38.621Z,4.30
2019-02-11T01:45:08.881Z,4.30
2019-02-11T01:47:37.808Z,4.30
2019-02-11T01:50:08.612Z,4.10
2019-02-11T01:52:37.527Z,4.10
2019-02-11T01:55:09.593Z,4.10
2019-02-11T01:57:39.800Z,4.10
2019-02-11T02:00:12.182Z,4.10
2019-02-11T02:02:41.229Z,4.20
2019-02-11T02:05:10.319Z,4.20
2019-02-11T02:07:39.402Z,4.20
2019-02-11T02:10:10.462Z,4.20
2019-02-11T02:12:39.449Z,4.10
2019-02-11T02:15:08.673Z,4.20
2019-02-11T02:17:37.705Z,4.10
2019-02-11T02:20:07.855Z,4.20
2019-02-11T02:22:36.907Z,4.20
2019-02-11T02:25:06.205Z,4.20
2019-02-11T02:27:36.052Z,4.20
2019-02-11T02:30:05.985Z,4.20
2019-02-11T02:32:34.941Z,4.30
2019-02-11T02:35:04.024Z,4.20
2019-02-11T02:37:33.021Z,4.20
2019-02-11T02:40:01.989Z,4.40
2019-02-11T02:42:30.951Z,4.50
2019-02-11T02:45:00.046Z,4.40
2019-02-11T02:47:29.027Z,4.40
2019-02-11T02:49:57.987Z,4.50
2019-02-11T02:52:26.947Z,4.50
2019-02-11T02:54:55.907Z,4.50
2019-02-11T02:57:24.860Z,4.40
2019-02-11T02:59:53.870Z,4.40
2019-02-11T03:02:23.640Z,4.40
2019-02-11T03:04:52.734Z,4.40
2019-02-11T03:07:21.687Z,4.40
2019-02-11T03:09:50.660Z,4.50
2019-02-11T03:12:19.683Z,4.50
2019-02-11T03:14:48.651Z,4.60
2019-02-11T03:17:17.582Z,4.60
2019-02-11T03:19:46.507Z,4.70
2019-02-11T03:22:15.465Z,4.80
2019-02-11T03:24:44.567Z,5.00
2019-02-11T03:27:13.570Z,5.10
2019-02-11T03:29:42.510Z,5.20
2019-02-11T03:32:11.459Z,5.10
2019-02-11T03:34:40.472Z,5.10
2019-02-11T03:37:09.484Z,5.10
2019-02-11T03:39:38.505Z,5.20
2019-02-11T03:44:35.978Z,5.30
2019-02-11T03:47:04.915Z,5.30
2019-02-11T03:49:33.864Z,5.30
2019-02-11T03:52:02.849Z,5.30
2019-02-11T03:54:31.753Z,5.30
2019-02-11T03:57:00.684Z,5.30
2019-02-11T03:59:29.778Z,5.30
2019-02-11T04:01:58.803Z,5.30
2019-02-11T04:04:27.722Z,5.20
2019-02-11T04:06:56.665Z,5.20
2019-02-11T04:09:25.598Z,5.20
2019-02-11T04:11:54.573Z,5.10
2019-02-11T04:14:25.289Z,5.10
2019-02-11T04:16:54.394Z,5.20
2019-02-11T04:19:23.369Z,5.20
2019-02-11T04:22:08.647Z,5.20
2019-02-11T04:24:37.693Z,5.20
2019-02-11T04:27:06.703Z,5.30
2019-02-11T04:29:44.558Z,5.30
2019-02-11T04:32:13.521Z,5.30
2019-02-11T04:34:42.581Z,5.30
2019-02-11T04:37:11.515Z,5.40
2019-02-11T04:39:40.427Z,5.40
2019-02-11T04:42:10.223Z,5.40
2019-02-11T04:44:39.169Z,5.40
2019-02-11T04:47:08.134Z,5.40
2019-02-11T04:49:37.072Z,5.50
2019-02-11T04:52:06.044Z,5.40
2019-02-11T04:54:34.964Z,5.50
2019-02-11T04:57:04.033Z,5.40
2019-02-11T04:59:33.012Z,5.40
2019-02-11T05:02:02.024Z,5.40
2019-02-11T05:04:33.323Z,5.40
2019-02-11T05:07:02.333Z,5.40
2019-02-11T05:09:31.275Z,5.40
2019-02-11T05:12:00.296Z,5.40
2019-02-11T05:14:29.222Z,5.40
2019-02-11T05:16:58.232Z,5.40
2019-02-11T05:19:27.232Z,5.40
2019-02-11T05:21:56.148Z,5.40
2019-02-11T05:24:25.080Z,5.30
2019-02-11T05:26:54.018Z,5.40
2019-02-11T05:29:23.176Z,5.40
2019-02-11T05:31:55.185Z,5.50
2019-02-11T05:34:24.121Z,5.50
2019-02-11T05:36:53.161Z,5.50
2019-02-11T05:39:22.055Z,5.50
2019-02-11T05:41:51.040Z,5.50
2019-02-11T05:46:48.572Z,5.60
2019-02-11T05:49:17.504Z,5.60
2019-02-11T05:51:46.445Z,5.50
2019-02-11T05:54:15.358Z,5.40
2019-02-11T05:56:44.289Z,5.30
2019-02-11T05:59:13.260Z,5.30
2019-02-11T06:01:42.193Z,5.40
2019-02-11T06:04:11.110Z,5.40
2019-02-11T06:06:40.128Z,5.40
2019-02-11T06:09:09.090Z,5.50
2019-02-11T06:11:38.053Z,5.50
2019-02-11T06:14:06.992Z,5.50
2019-02-11T06:16:35.938Z,5.50
2019-02-11T06:19:04.984Z,5.60
2019-02-11T06:21:33.970Z,5.70
2019-02-11T06:24:02.930Z,5.70
2019-02-11T06:26:31.925Z,5.70
2019-02-11T06:29:00.918Z,5.70
2019-02-11T06:31:29.868Z,5.60
2019-02-11T06:33:58.829Z,5.60
2019-02-11T06:36:27.760Z,5.60
2019-02-11T06:38:56.737Z,5.60
2019-02-11T06:41:25.665Z,5.60
2019-02-11T06:43:54.569Z,5.60
2019-02-11T06:46:23.559Z,5.70
2019-02-11T06:48:52.583Z,5.70
2019-02-11T06:51:21.536Z,5.70
2019-02-11T06:53:50.583Z,5.70
2019-02-11T06:56:19.517Z,5.80
2019-02-11T06:58:48.460Z,5.70
2019-02-11T07:01:17.449Z,5.80
2019-02-11T07:03:46.414Z,5.80
2019-02-11T07:06:15.421Z,5.80
2019-02-11T07:08:44.436Z,5.80
2019-02-11T07:11:13.348Z,5.80
2019-02-11T07:13:42.309Z,5.80
2019-02-11T07:16:11.324Z,5.90
2019-02-11T07:18:40.316Z,5.90
2019-02-11T07:21:09.282Z,6.00
2019-02-11T07:23:38.241Z,6.00
2019-02-11T07:26:07.231Z,6.00
2019-02-11T07:28:36.169Z,6.00
2019-02-11T07:31:05.132Z,6.00
2019-02-11T07:33:34.126Z,6.00
2019-02-11T07:36:03.104Z,6.00
2019-02-11T07:38:32.028Z,6.10
2019-02-11T07:41:01.334Z,6.10
2019-02-11T07:43:44.281Z,6.10
2019-02-11T07:46:30.973Z,6.10
2019-02-11T07:49:00.008Z,6.10
2019-02-11T07:51:29.003Z,6.00
2019-02-11T07:53:57.939Z,6.10
2019-02-11T07:56:26.903Z,6.00
2019-02-11T07:58:55.898Z,5.90
2019-02-11T08:01:24.928Z,5.90
2019-02-11T08:03:53.894Z,5.80
2019-02-11T08:06:22.845Z,5.80
2019-02-11T08:08:51.834Z,5.90
2019-02-11T08:11:20.858Z,5.80
2019-02-11T08:13:49.860Z,5.80
2019-02-11T08:16:18.824Z,5.80
2019-02-11T08:18:47.803Z,5.90
2019-02-11T08:21:16.811Z,6.00
2019-02-11T08:23:45.790Z,6.00
2019-02-11T08:26:14.729Z,6.00
2019-02-11T08:28:43.670Z,6.00
2019-02-11T08:31:12.677Z,6.10
2019-02-11T08:33:41.683Z,6.10
2019-02-11T08:36:10.784Z,6.10
2019-02-11T08:38:39.914Z,6.20
2019-02-11T08:41:08.852Z,6.30
2019-02-11T08:43:37.844Z,6.30
2019-02-11T08:46:06.821Z,6.20
2019-02-11T08:48:35.779Z,6.30
2019-02-11T08:51:04.670Z,6.30
2019-02-11T08:53:33.735Z,6.30
2019-02-11T08:56:03.491Z,6.40
2019-02-11T08:58:32.608Z,6.30
2019-02-11T09:01:09.609Z,6.30
2019-02-11T09:03:38.611Z,6.50
2019-02-11T09:06:08.031Z,6.60
2019-02-11T09:08:46.703Z,6.70
2019-02-11T09:11:15.927Z,6.60
2019-02-11T09:13:44.968Z,6.50
2019-02-11T09:16:14.605Z,6.40
2019-02-11T09:18:43.743Z,6.40
2019-02-11T09:21:12.876Z,6.50
2019-02-11T09:23:41.977Z,6.60
2019-02-11T09:26:11.043Z,6.70
2019-02-11T09:28:39.968Z,6.60
2019-02-11T09:31:09.044Z,6.70
2019-02-11T09:33:38.064Z,6.80
2019-02-11T09:36:08.613Z,6.70
2019-02-11T09:38:38.935Z,6.70
2019-02-11T09:41:08.077Z,6.70
2019-02-11T09:43:37.089Z,6.70
2019-02-11T09:46:06.273Z,6.80
2019-02-11T09:48:35.430Z,6.60
2019-02-11T09:51:05.420Z,6.70
2019-02-11T09:53:34.346Z,6.80
2019-02-11T09:56:03.348Z,6.90
2019-02-11T09:58:32.372Z,6.70
2019-02-11T10:01:01.448Z,6.90
2019-02-11T10:03:30.363Z,6.80
2019-02-11T10:05:59.315Z,6.80
2019-02-11T10:08:28.321Z,6.80
2019-02-11T10:10:57.243Z,6.90
2019-02-11T10:13:26.133Z,6.90
2019-02-11T10:15:55.103Z,6.90
2019-02-11T10:18:24.093Z,7.00
2019-02-11T10:20:53.161Z,7.00
2019-02-11T10:23:22.196Z,7.00
2019-02-11T10:25:51.158Z,6.90
2019-02-11T10:28:20.125Z,7.00
2019-02-11T10:30:49.125Z,7.00
2019-02-11T10:33:18.139Z,7.00
2019-02-11T10:35:47.250Z,7.00
2019-02-11T10:38:16.211Z,7.00
2019-02-11T10:40:45.265Z,7.00
2019-02-11T10:43:14.258Z,7.10
2019-02-11T10:45:43.205Z,7.10
2019-02-11T10:48:12.907Z,7.10
2019-02-11T10:50:41.952Z,7.10
2019-02-11T10:53:10.881Z,7.10
2019-02-11T10:55:40.390Z,7.20
2019-02-11T10:58:09.436Z,7.10
2019-02-11T11:00:39.263Z,7.10
2019-02-11T11:03:08.256Z,7.10
2019-02-11T11:05:37.256Z,7.10
2019-02-11T11:08:06.269Z,7.00
2019-02-11T11:10:36.018Z,6.60
2019-02-11T11:13:05.267Z,6.10
2019-02-11T11:15:34.385Z,5.90
2019-02-11T11:20:32.043Z,6.00
2019-02-11T11:23:00.967Z,6.20
2019-02-11T11:25:30.127Z,6.40
2019-02-11T11:27:59.183Z,6.40
2019-02-11T11:30:28.308Z,6.70
2019-02-11T11:33:02.943Z,6.90
2019-02-11T11:35:32.033Z,7.20
2019-02-11T11:38:03.439Z,7.10
2019-02-11T11:40:33.289Z,7.30
2019-02-11T11:43:02.492Z,7.70
2019-02-11T11:45:31.684Z,7.70
2019-02-11T11:48:00.898Z,7.60
2019-02-11T11:50:29.900Z,7.60
2019-02-11T11:52:58.966Z,7.50
2019-02-11T11:55:27.941Z,7.30
2019-02-11T11:57:57.121Z,7.20
2019-02-11T12:00:27.465Z,7.20
2019-02-11T12:03:02.745Z,7.10
2019-02-11T12:05:27.480Z,7.10
2019-02-11T12:07:56.632Z,7.10
2019-02-11T12:10:26.192Z,7.10
2019-02-11T12:12:55.606Z,7.10
2019-02-11T12:15:25.539Z,7.20
2019-02-11T12:17:54.758Z,7.20
2019-02-11T12:20:23.986Z,7.30
2019-02-11T12:22:53.134Z,7.40
2019-02-11T12:25:22.198Z,7.40
2019-02-11T12:27:51.279Z,7.40
2019-02-11T12:30:24.897Z,7.50
2019-02-11T12:32:55.696Z,7.10
2019-02-11T12:35:27.714Z,6.80
2019-02-11T12:40:25.588Z,6.50
2019-02-11T12:42:54.681Z,6.40
2019-02-11T12:45:24.305Z,6.40
2019-02-11T12:47:53.586Z,6.40
2019-02-11T12:50:22.800Z,6.50
2019-02-11T12:52:51.804Z,6.80
2019-02-11T12:55:20.937Z,6.90
2019-02-11T12:57:49.966Z,7.10
2019-02-11T13:00:20.802Z,7.20
2019-02-11T13:02:50.178Z,7.40
2019-02-11T13:05:22.795Z,7.80
2019-02-11T13:07:50.266Z,7.80
2019-02-11T13:10:20.253Z,7.90
2019-02-11T13:12:49.627Z,7.90
2019-02-11T13:15:52.696Z,7.80
2019-02-11T13:17:49.805Z,7.60
2019-02-11T13:20:19.601Z,7.40
2019-02-11T13:22:49.067Z,7.40
2019-02-11T13:25:28.929Z,7.30
2019-02-11T13:27:57.901Z,7.40
2019-02-11T13:30:27.042Z,7.40
2019-02-11T13:32:56.063Z,7.50
2019-02-11T13:35:25.142Z,7.50
2019-02-11T13:37:55.692Z,7.60
2019-02-11T13:40:24.945Z,7.60
2019-02-11T13:42:54.065Z,7.60
2019-02-11T13:45:23.336Z,7.40
2019-02-11T13:47:57.126Z,7.40
2019-02-11T13:50:24.406Z,7.40
2019-02-11T13:55:22.706Z,7.30
2019-02-11T13:57:52.238Z,7.10
2019-02-11T14:00:28.529Z,7.10
2019-02-11T14:02:57.774Z,7.00
2019-02-11T14:05:27.704Z,7.10
2019-02-11T14:07:58.390Z,7.20
2019-02-11T14:10:27.508Z,7.20
2019-02-11T14:12:56.679Z,7.20
2019-02-11T14:18:10.766Z,7.50
2019-02-11T14:20:25.944Z,7.50
2019-02-11T14:22:55.008Z,7.50
2019-02-11T14:25:41.123Z,7.40
2019-02-11T14:27:54.868Z,7.50
2019-02-11T14:32:52.681Z,7.40
2019-02-11T14:35:21.712Z,7.40
2019-02-11T14:37:50.830Z,7.40
2019-02-11T14:40:20.072Z,7.40
2019-02-11T14:42:49.095Z,7.30
2019-02-11T14:45:18.370Z,7.30
2019-02-11T14:47:47.463Z,6.30
2019-02-11T14:50:16.455Z,5.50
2019-02-11T14:52:45.460Z,5.10
2019-02-11T14:55:14.583Z,5.00
2019-02-11T14:57:43.535Z,4.80
2019-02-11T15:00:21.567Z,4.80
2019-02-11T15:02:50.614Z,4.70
2019-02-11T15:05:19.793Z,4.70
2019-02-11T15:07:49.107Z,4.70
2019-02-11T15:10:19.638Z,4.60
2019-02-11T15:12:48.823Z,4.60
2019-02-11T15:15:17.950Z,4.70
2019-02-11T15:17:47.065Z,4.50
2019-02-11T15:20:16.144Z,4.60
2019-02-11T15:22:45.201Z,4.50
2019-02-11T15:25:18.413Z,4.60
2019-02-11T15:27:47.479Z,4.60
2019-02-11T15:30:45.170Z,4.60
2019-02-11T15:33:25.665Z,4.60
2019-02-11T15:35:56.448Z,4.60
2019-02-11T15:38:36.345Z,4.60
2019-02-11T15:41:47.388Z,4.60
2019-02-11T15:44:16.796Z,4.60
2019-02-11T15:46:45.786Z,4.70
2019-02-11T15:49:14.843Z,4.70
2019-02-11T15:51:43.958Z,4.80
2019-02-11T15:54:12.896Z,4.90
2019-02-11T15:56:41.854Z,4.80
2019-02-11T15:59:10.805Z,4.90
2019-02-11T16:01:39.763Z,4.80
2019-02-11T16:04:08.937Z,4.80
2019-02-11T16:07:14.545Z,4.80
2019-02-11T16:09:39.725Z,4.80
2019-02-11T16:12:19.269Z,4.80
2019-02-11T16:14:56.260Z,4.70
2019-02-11T16:17:25.442Z,4.70
2019-02-11T16:19:54.376Z,4.80
2019-02-11T16:22:23.311Z,4.80
2019-02-11T16:24:52.295Z,4.70
2019-02-11T16:27:22.856Z,4.70
2019-02-11T16:29:51.824Z,4.80
2019-02-11T16:32:20.998Z,4.80
2019-02-11T16:34:50.045Z,4.90
2019-02-11T16:37:18.956Z,5.00
2019-02-11T16:39:48.244Z,5.00
2019-02-11T16:42:17.249Z,5.00
2019-02-11T16:44:46.273Z,5.00
2019-02-11T16:47:15.351Z,4.90
2019-02-11T16:49:44.331Z,4.80
2019-02-11T16:52:13.303Z,4.70
2019-02-11T16:54:42.292Z,4.70
2019-02-11T16:57:11.240Z,4.60
2019-02-11T16:59:40.380Z,4.60
2019-02-11T17:02:09.347Z,4.60
2019-02-11T17:04:38.338Z,4.70
2019-02-11T17:07:07.410Z,4.70
2019-02-11T17:09:36.465Z,4.70
2019-02-11T17:12:05.581Z,4.60
2019-02-11T17:14:34.741Z,4.60
2019-02-11T17:17:03.847Z,4.50
2019-02-11T17:19:33.139Z,4.60
2019-02-11T17:22:02.219Z,4.60
2019-02-11T17:24:31.399Z,4.60
2019-02-11T17:27:00.598Z,4.50
2019-02-11T17:29:29.558Z,4.40
2019-02-11T17:31:58.562Z,4.30
2019-02-11T17:34:27.576Z,4.50
2019-02-11T17:36:56.713Z,4.40
2019-02-11T17:39:25.781Z,4.40
2019-02-11T17:41:54.980Z,4.40
2019-02-11T17:44:23.981Z,4.40
2019-02-11T17:46:53.019Z,4.40
2019-02-11T17:49:22.251Z,4.40
2019-02-11T17:51:51.315Z,4.40
2019-02-11T17:54:20.523Z,4.40
2019-02-11T17:56:49.687Z,4.40
2019-02-11T17:59:18.715Z,4.40
2019-02-11T18:01:49.236Z,4.30
2019-02-11T18:04:18.252Z,4.30
2019-02-11T18:06:47.216Z,4.30
2019-02-11T18:09:16.644Z,4.30
2019-02-11T18:11:45.664Z,4.30
2019-02-11T18:14:14.917Z,4.30
2019-02-11T18:16:43.933Z,4.10
2019-02-11T18:19:13.071Z,4.10
2019-02-11T18:21:42.307Z,4.00
2019-02-11T18:24:11.322Z,4.10
2019-02-11T18:26:40.337Z,4.10
2019-02-11T18:29:19.097Z,4.10
2019-02-11T18:31:49.129Z,4.10
2019-02-11T18:34:18.207Z,4.10
2019-02-11T18:36:47.197Z,4.10
2019-02-11T18:39:17.316Z,4.20
2019-02-11T18:41:46.544Z,4.10
2019-02-11T18:44:15.563Z,4.00
2019-02-11T18:46:44.785Z,4.00
2019-02-11T18:49:13.805Z,4.00
2019-02-11T18:51:42.796Z,4.10
2019-02-11T18:54:11.787Z,4.10
2019-02-11T18:56:40.807Z,4.00
2019-02-11T18:59:09.865Z,4.00
2019-02-11T19:01:39.105Z,3.90
2019-02-11T19:04:08.351Z,3.90
2019-02-11T19:06:37.472Z,3.90
2019-02-11T19:09:12.542Z,3.80
2019-02-11T19:11:41.641Z,3.80
2019-02-11T19:14:10.722Z,3.90
2019-02-11T19:16:39.808Z,3.80
2019-02-11T19:19:08.825Z,3.80
2019-02-11T19:21:37.784Z,3.70
2019-02-11T19:24:07.458Z,3.70
2019-02-11T19:26:36.754Z,3.70
2019-02-11T19:29:06.164Z,3.70
2019-02-11T19:31:35.632Z,3.80
2019-02-11T19:34:07.699Z,3.80
2019-02-11T19:36:37.499Z,3.80
2019-02-11T19:39:07.619Z,3.80
2019-02-11T19:41:37.882Z,3.90
2019-02-11T19:44:07.044Z,3.90
2019-02-11T19:46:39.539Z,4.00
2019-02-11T19:49:12.008Z,3.90
2019-02-11T19:51:41.273Z,3.90
2019-02-11T19:54:10.378Z,3.80
2019-02-11T19:56:39.372Z,3.80
2019-02-11T19:59:08.652Z,3.80
2019-02-11T20:01:37.600Z,3.80
2019-02-11T20:04:07.841Z,3.80
2019-02-11T20:06:37.301Z,3.80
2019-02-11T20:09:07.092Z,3.70
2019-02-11T20:11:37.906Z,3.70
2019-02-11T20:14:07.215Z,3.40
2019-02-11T20:16:36.187Z,3.60
2019-02-11T20:19:05.701Z,3.60
2019-02-11T20:21:34.743Z,3.50
2019-02-11T20:24:03.965Z,3.40
2019-02-11T20:26:33.136Z,3.50
2019-02-11T20:29:02.166Z,3.40
2019-02-11T20:31:31.167Z,3.40
2019-02-11T20:34:00.575Z,3.40
2019-02-11T20:36:29.566Z,3.20
2019-02-11T20:38:58.667Z,3.20
2019-02-11T20:41:27.955Z,3.20
2019-02-11T20:43:57.045Z,3.20
2019-02-11T20:46:26.176Z,3.20
2019-02-11T20:48:55.597Z,3.20
2019-02-11T20:51:24.760Z,3.10
2019-02-11T20:53:54.010Z,3.20
2019-02-11T20:56:23.407Z,3.10
2019-02-11T20:58:52.581Z,3.10
2019-02-11T21:01:21.577Z,3.10
2019-02-11T21:03:50.737Z,3.10
2019-02-11T21:06:20.133Z,3.10
2019-02-11T21:08:49.250Z,3.10
2019-02-11T21:11:18.514Z,3.10
2019-02-11T21:13:47.500Z,3.00
2019-02-11T21:16:16.526Z,3.00
2019-02-11T21:18:45.528Z,3.00
2019-02-11T21:21:14.958Z,3.00
2019-02-11T21:23:43.982Z,3.10
2019-02-11T21:26:12.947Z,3.10
2019-02-11T21:28:41.991Z,3.00
2019-02-11T21:31:11.151Z,3.00
2019-02-11T21:33:40.151Z,3.10
2019-02-11T21:36:09.455Z,3.10
2019-02-11T21:38:38.519Z,3.20
2019-02-11T21:41:07.504Z,3.30
2019-02-11T21:43:36.428Z,3.40
2019-02-11T21:46:05.500Z,3.50
2019-02-11T21:48:34.602Z,3.40
2019-02-11T21:51:03.492Z,3.40
2019-02-11T21:53:32.826Z,3.40
2019-02-11T21:56:04.369Z,3.40
2019-02-11T21:58:33.337Z,3.40
2019-02-11T22:01:02.728Z,3.30
2019-02-11T22:03:31.935Z,3.40
2019-02-11T22:06:00.875Z,3.40
2019-02-11T22:08:29.883Z,3.40
2019-02-11T22:10:58.970Z,3.30
2019-02-11T22:13:27.937Z,3.30
2019-02-11T22:15:57.172Z,3.20
2019-02-11T22:18:26.190Z,3.30
2019-02-11T22:20:55.362Z,3.20
2019-02-11T22:23:24.408Z,3.20
2019-02-11T22:25:53.553Z,3.30
2019-02-11T22:28:22.669Z,3.40
2019-02-11T22:30:51.649Z,3.40
2019-02-11T22:33:20.890Z,3.50
2019-02-11T22:35:49.851Z,3.50
2019-02-11T22:38:18.775Z,3.60
2019-02-11T22:40:47.738Z,3.70
2019-02-11T22:43:16.716Z,3.70
2019-02-11T22:45:48.154Z,3.60
2019-02-11T22:48:17.209Z,3.60
2019-02-11T22:50:46.237Z,3.60
2019-02-11T22:53:15.386Z,3.50
2019-02-11T22:55:44.413Z,3.40
2019-02-11T22:58:13.474Z,3.40
2019-02-11T23:00:48.448Z,4.40
2019-02-11T23:03:17.469Z,3.10
2019-02-11T23:05:46.596Z,3.00
2019-02-11T23:08:15.543Z,3.10
2019-02-11T23:10:44.609Z,3.10
2019-02-11T23:13:13.663Z,3.10
2019-02-11T23:15:42.749Z,3.20
2019-02-11T23:18:11.802Z,3.30
2019-02-11T23:20:40.845Z,3.40
2019-02-11T23:23:09.798Z,3.40
2019-02-11T23:25:38.858Z,3.50
2019-02-11T23:28:07.898Z,3.50
2019-02-11T23:30:36.934Z,3.60
2019-02-11T23:33:05.912Z,3.60
2019-02-11T23:35:34.900Z,3.60
2019-02-11T23:38:03.870Z,3.70
2019-02-11T23:40:33.081Z,3.60
2019-02-11T23:43:02.189Z,3.60
2019-02-11T23:45:31.184Z,3.60
2019-02-11T23:48:00.592Z,3.60
2019-02-11T23:50:29.577Z,3.60
2019-02-11T23:52:58.527Z,3.60
2019-02-11T23:55:27.824Z,3.60
2019-02-11T23:57:56.968Z,3.60
